Time;durP1;ratioP1;P1;durP2;ratioP2;P2;SDS_P1;SDS_P2;PMS_P1;PMS_P2;Temp;Humidity;BMP_temperature;BMP_pressure;BME280_temperature;BME280_humidity;BME280_pressure;Samples;Min_cycle;Max_cycle;Signal;HPM_P1;HPM_P2
2021/12/20 00:13:46;;;;;;;8.13;3.03;;;;;;;3.58;93.08;99857.55;713670;1202;114398;-74
2021/12/20 00:28:48;;;;;;;15.00;4.00;;;;;;;3.50;93.92;99839.89;713713;1176;113793;-74
2021/12/20 00:43:50;;;;;;;8.00;3.50;;;;;;;3.61;96.64;99862.53;713787;1193;114553;-74
2021/12/20 00:58:53;;;;;;;9.50;3.80;;;;;;;3.52;97.26;99881.29;713801;1177;113418;-75
2021/12/20 01:13:57;;;;;;;6.83;3.53;;;;;;;3.43;99.90;99860.22;713696;1199;113691;-74
2021/12/20 01:29:00;;;;;;;5.58;3.80;;;;;;;3.60;100.00;99868.64;713812;1203;114710;-75
2021/12/20 01:44:03;;;;;;;4.77;2.97;;;;;;;3.70;100.00;99864.52;713641;1205;113894;-74
2021/12/20 01:59:07;;;;;;;3.03;1.50;;;;;;;3.63;100.00;99878.84;713745;1200;113628;-74
2021/12/20 02:14:11;;;;;;;10.90;4.85;;;;;;;3.52;100.00;99894.26;713849;1203;114821;-74
2021/12/20 02:29:15;;;;;;;8.23;3.00;;;;;;;3.59;100.00;99878.20;713708;1200;114302;-74
2021/12/20 02:44:19;;;;;;;14.00;5.63;;;;;;;3.60;100.00;99855.67;713740;1189;113351;-74
2021/12/20 02:59:22;;;;;;;4.70;2.47;;;;;;;3.61;100.00;99857.34;713795;1174;114072;-74
2021/12/20 03:14:30;;;;;;;2.43;1.68;;;;;;;3.52;100.00;99858.77;713642;1176;113320;-74
2021/12/20 03:29:33;;;;;;;7.63;2.20;;;;;;;3.53;100.00;99881.19;713984;1199;115105;-75
2021/12/20 03:44:38;;;;;;;2.40;1.35;;;;;;;3.36;100.00;99903.02;713885;1202;113509;-76
2021/12/20 03:59:40;;;;;;;3.83;1.88;;;;;;;3.33;100.00;99936.94;714047;1184;113584;-75
2021/12/20 04:14:42;;;;;;;6.20;2.58;;;;;;;3.14;100.00;99958.83;713815;1202;113749;-74
2021/12/20 04:29:46;;;;;;;4.00;2.63;;;;;;;2.95;100.00;99966.08;713859;1199;114431;-74
2021/12/20 04:44:48;;;;;;;8.65;4.03;;;;;;;3.04;100.00;99970.69;713855;1203;114446;-74
2021/12/20 04:59:50;;;;;;;42.98;26.55;;;;;;;3.08;100.00;99974.75;713858;1199;113860;-75
2021/12/20 05:14:52;;;;;;;25.95;10.03;;;;;;;3.07;100.00;100004.19;713863;1205;113532;-75
2021/12/20 05:29:55;;;;;;;9.68;4.40;;;;;;;3.10;100.00;100014.38;713747;1200;114312;-75
2021/12/20 05:44:57;;;;;;;7.70;3.37;;;;;;;3.19;100.00;100028.52;713716;1203;114964;-75
2021/12/20 06:00:00;;;;;;;18.28;7.35;;;;;;;3.02;100.00;100045.09;713851;1200;114030;-76
2021/12/20 06:15:03;;;;;;;8.20;3.73;;;;;;;2.98;100.00;100041.03;716736;1165;114166;-76
2021/12/20 06:30:08;;;;;;;6.03;3.08;;;;;;;3.00;100.00;100059.92;713653;1202;115669;-75
2021/12/20 06:45:11;;;;;;;18.60;10.13;;;;;;;3.02;100.00;100059.83;713785;1203;115141;-75
2021/12/20 07:00:13;;;;;;;20.28;6.15;;;;;;;3.05;100.00;100063.08;713768;1203;114845;-78
2021/12/20 07:15:16;;;;;;;45.85;17.63;;;;;;;3.10;100.00;100080.93;714070;1199;114101;-73
2021/12/20 07:30:19;;;;;;;65.00;30.03;;;;;;;2.95;100.00;100093.88;714213;1200;114142;-72
2021/12/20 07:45:22;;;;;;;35.58;17.78;;;;;;;3.03;100.00;100119.34;714400;1200;114577;-78
2021/12/20 08:00:24;;;;;;;63.17;21.83;;;;;;;3.20;100.00;100143.45;715353;1178;114072;-82
2021/12/20 08:15:27;;;;;;;34.45;14.05;;;;;;;3.29;100.00;100176.61;715015;1188;114209;-82
2021/12/20 08:30:30;;;;;;;20.08;7.90;;;;;;;3.51;100.00;100194.31;716436;1199;114092;-83
2021/12/20 08:45:32;;;;;;;27.60;11.88;;;;;;;3.32;100.00;100213.53;716939;1177;114826;-84
2021/12/20 09:00:36;;;;;;;46.73;21.38;;;;;;;3.36;100.00;100231.53;715903;1177;114050;-84
2021/12/20 09:15:39;;;;;;;29.53;11.20;;;;;;;3.66;100.00;100262.60;716028;1174;114335;-85
2021/12/20 09:30:45;;;;;;;18.13;7.75;;;;;;;3.48;100.00;100283.52;715813;1177;114507;-87
2021/12/20 09:45:49;;;;;;;27.25;14.95;;;;;;;2.93;100.00;100309.98;715409;1177;113967;-82
2021/12/20 10:00:52;;;;;;;80.03;44.88;;;;;;;2.96;100.00;100327.97;716399;1176;114133;-83
2021/12/20 10:15:56;;;;;;;36.10;14.83;;;;;;;3.44;100.00;100354.63;714429;1177;114395;-77
2021/12/20 10:31:10;;;;;;;29.37;12.00;;;;;;;3.32;100.00;100363.12;714532;1200;119050;-81
2021/12/20 10:46:16;;;;;;;30.07;11.47;;;;;;;3.00;100.00;100376.13;714484;1200;114145;-81
2021/12/20 11:16:49;;;;;;;173.75;52.55;;;;;;;3.03;99.52;100412.23;714294;1177;114296;-73
2021/12/20 11:31:53;;;;;;;97.80;28.00;;;;;;;2.58;96.83;100432.75;714285;1200;115066;-73
2021/12/20 11:47:27;;;;;;;44.08;18.88;;;;;;;2.34;96.45;100447.81;714210;1199;114131;-73
2021/12/20 12:02:34;;;;;;;22.43;10.40;;;;;;;2.46;92.38;100472.23;714651;1203;114755;-72
2021/12/20 12:17:56;;;;;;;25.88;10.63;;;;;;;2.68;90.96;100499.62;714659;1177;114460;-74
2021/12/20 12:32:59;;;;;;;35.83;13.03;;;;;;;2.83;89.50;100504.02;714933;1177;114049;-75
2021/12/20 12:48:23;;;;;;;65.38;17.90;;;;;;;2.66;88.28;100523.84;714607;1202;114544;-81
2021/12/20 13:03:26;;;;;;;58.93;20.13;;;;;;;3.22;88.18;100552.09;715001;1199;114563;-80
2021/12/20 13:18:38;;;;;;;42.77;17.23;;;;;;;2.88;88.65;100571.13;715218;1178;113846;-79
2021/12/20 13:33:51;;;;;;;74.77;21.37;;;;;;;2.70;86.75;100575.52;715117;1199;113902;-82
2021/12/20 13:48:59;;;;;;;36.20;13.33;;;;;;;2.34;85.89;100595.40;715212;1202;116023;-76
2021/12/20 14:04:02;;;;;;;31.53;13.63;;;;;;;2.38;85.98;100617.64;714905;1199;114517;-76
2021/12/20 14:19:06;;;;;;;72.25;22.45;;;;;;;2.34;86.67;100629.06;715125;1203;114769;-83
2021/12/20 14:34:10;;;;;;;74.98;28.80;;;;;;;2.21;85.95;100646.09;715494;1177;114090;-84
2021/12/20 14:49:21;;;;;;;67.80;21.75;;;;;;;1.84;86.35;100664.16;718500;1200;113810;-84
2021/12/20 15:04:24;;;;;;;27.97;12.00;;;;;;;1.50;87.37;100683.77;714593;1174;114084;-84
2021/12/20 15:19:27;;;;;;;587.60;211.95;;;;;;;1.38;88.44;100694.66;715397;1202;114141;-81
2021/12/20 15:34:30;;;;;;;99.98;58.43;;;;;;;1.14;89.37;100705.13;715636;1177;114184;-84
2021/12/20 15:49:32;;;;;;;58.05;21.63;;;;;;;1.20;90.21;100714.36;715402;1176;113806;-84
2021/12/20 16:04:34;;;;;;;156.98;47.83;;;;;;;1.06;91.01;100733.05;715549;1200;115650;-74
2021/12/20 16:19:37;;;;;;;72.07;26.33;;;;;;;0.68;94.44;100746.59;715380;1200;115162;-75
2021/12/20 16:34:39;;;;;;;61.33;20.93;;;;;;;0.59;93.12;100734.87;716463;1177;114066;-76
2021/12/20 16:49:41;;;;;;;92.05;29.53;;;;;;;0.53;94.51;100754.92;716350;1203;114119;-76
2021/12/20 17:04:52;;;;;;;54.50;20.98;;;;;;;0.58;94.53;100771.95;715705;1178;114533;-85
2021/12/20 17:19:54;;;;;;;27.67;9.93;;;;;;;0.58;96.10;100782.27;715551;1200;114925;-83
2021/12/20 17:34:58;;;;;;;15.20;7.18;;;;;;;0.60;96.15;100787.38;714826;1205;113682;-83
2021/12/20 17:50:00;;;;;;;428.43;128.00;;;;;;;0.52;97.24;100803.16;714658;1202;114390;-75
2021/12/20 18:05:04;;;;;;;686.50;228.70;;;;;;;0.57;97.03;100803.83;714980;1199;115791;-74
2021/12/20 18:20:09;;;;;;;266.20;87.93;;;;;;;0.47;97.62;100818.80;715043;1201;115772;-73
2021/12/20 18:35:12;;;;;;;114.90;46.80;;;;;;;0.35;97.78;100827.02;714763;1200;114201;-72
2021/12/20 18:50:16;;;;;;;57.93;26.68;;;;;;;0.30;98.26;100822.04;714845;1202;114286;-73
2021/12/20 19:05:18;;;;;;;60.28;23.33;;;;;;;0.17;97.61;100836.26;715148;1199;113990;-78
2021/12/20 19:20:21;;;;;;;55.53;23.60;;;;;;;0.37;98.25;100845.88;715114;1199;113994;-79
2021/12/20 19:35:32;;;;;;;108.50;44.00;;;;;;;0.29;98.44;100838.41;715219;1203;114903;-78
2021/12/20 19:50:36;;;;;;;129.87;36.93;;;;;;;0.27;99.13;100847.11;715076;1203;114862;-77
2021/12/20 20:05:39;;;;;;;111.53;31.37;;;;;;;0.37;99.72;100851.05;714887;1200;115560;-77
2021/12/20 20:20:41;;;;;;;31.73;15.50;;;;;;;0.24;100.00;100852.36;714661;1200;114732;-78
2021/12/20 20:35:45;;;;;;;111.23;38.53;;;;;;;0.46;100.00;100848.13;714617;1178;114837;-77
2021/12/20 20:50:47;;;;;;;65.18;29.35;;;;;;;0.46;100.00;100858.45;715957;1177;114384;-74
2021/12/20 21:05:49;;;;;;;482.38;117.95;;;;;;;0.29;100.00;100855.63;714981;1200;115180;-75
2021/12/20 21:20:52;;;;;;;193.70;53.30;;;;;;;0.39;100.00;100874.22;715266;1177;114901;-74
2021/12/20 21:35:54;;;;;;;507.00;126.48;;;;;;;0.41;100.00;100875.84;715213;1178;114819;-73
2021/12/20 21:50:57;;;;;;;401.05;105.68;;;;;;;0.37;100.00;100884.60;714639;1183;114484;-72
2021/12/20 22:06:01;;;;;;;387.90;105.88;;;;;;;0.27;100.00;100878.08;715206;1176;114522;-74
2021/12/20 22:21:03;;;;;;;348.08;107.18;;;;;;;0.03;100.00;100872.88;714992;1203;114845;-76
2021/12/20 22:36:06;;;;;;;61.30;23.00;;;;;;;-0.02;100.00;100892.84;714918;1187;115610;-74
2021/12/20 22:51:09;;;;;;;32.70;14.50;;;;;;;0.02;100.00;100893.58;718306;1177;114306;-75
2021/12/20 23:06:11;;;;;;;17.58;7.53;;;;;;;0.05;100.00;100902.03;714951;1199;115600;-77
2021/12/20 23:21:14;;;;;;;12.28;5.70;;;;;;;0.10;100.00;100915.63;715153;1200;114561;-76
2021/12/20 23:36:16;;;;;;;11.90;5.07;;;;;;;-0.18;100.00;100913.16;714885;1200;114371;-76
2021/12/20 23:51:20;;;;;;;14.18;5.53;;;;;;;-0.46;100.00;100915.77;714359;1199;114173;-76
